createdAt,value
2023-04-20T00:00:50.275Z,5.67
2023-04-20T00:03:21.220Z,5.17
2023-04-20T00:05:50.809Z,4.87
2023-04-20T00:08:18.768Z,4.90
2023-04-20T00:10:47.072Z,3.53
2023-04-20T00:13:14.975Z,6.23
2023-04-20T00:15:42.946Z,6.80
2023-04-20T00:18:11.013Z,4.00
2023-04-20T00:20:39.266Z,5.23
2023-04-20T00:23:08.677Z,4.70
2023-04-20T00:25:36.660Z,6.13
2023-04-20T00:28:05.053Z,4.57
2023-04-20T00:30:34.748Z,4.90
2023-04-20T00:33:04.168Z,4.33
2023-04-20T00:35:32.205Z,3.93
2023-04-20T00:38:00.094Z,5.20
2023-04-20T00:40:29.421Z,3.80
2023-04-20T00:42:57.690Z,3.13
2023-04-20T00:45:25.707Z,6.50
2023-04-20T00:47:53.619Z,4.03
2023-04-20T00:50:22.359Z,5.50
2023-04-20T00:52:50.533Z,4.87
2023-04-20T00:55:18.566Z,4.63
2023-04-20T00:57:47.874Z,4.90
2023-04-20T01:00:16.402Z,5.23
2023-04-20T01:02:44.407Z,4.93
2023-04-20T01:05:13.157Z,7.87
2023-04-20T01:07:41.355Z,5.73
2023-04-20T01:10:10.369Z,7.03
2023-04-20T01:12:40.867Z,4.43
2023-04-20T01:15:10.951Z,4.03
2023-04-20T01:17:39.710Z,4.40
2023-04-20T01:20:11.475Z,4.57
2023-04-20T01:22:46.172Z,4.10
2023-04-20T01:25:14.172Z,8.40
2023-04-20T01:27:42.092Z,5.30
2023-04-20T01:30:11.160Z,6.83
2023-04-20T01:32:39.356Z,4.33
2023-04-20T01:35:09.277Z,6.80
2023-04-20T01:37:39.087Z,5.00
2023-04-20T01:40:10.250Z,3.90
2023-04-20T01:42:38.370Z,4.27
2023-04-20T01:45:07.018Z,6.50
2023-04-20T01:47:36.517Z,5.07
2023-04-20T01:50:04.655Z,6.87
2023-04-20T01:52:32.616Z,6.90
2023-04-20T01:55:00.456Z,4.50
2023-04-20T01:57:29.711Z,5.77
2023-04-20T01:59:57.646Z,5.37
2023-04-20T02:02:25.803Z,6.40
2023-04-20T02:04:55.106Z,6.40
2023-04-20T02:07:23.122Z,6.03
2023-04-20T02:09:50.946Z,3.90
2023-04-20T02:12:18.852Z,5.80
2023-04-20T02:14:48.096Z,4.63
2023-04-20T02:17:16.073Z,4.80
2023-04-20T02:19:44.002Z,3.63
2023-04-20T02:22:12.086Z,4.80
2023-04-20T02:24:40.231Z,4.97
2023-04-20T02:27:08.253Z,3.73
2023-04-20T02:29:36.312Z,3.40
2023-04-20T02:32:07.734Z,6.53
2023-04-20T02:34:35.604Z,6.30
2023-04-20T02:37:03.487Z,3.87
2023-04-20T02:39:31.411Z,5.67
2023-04-20T02:41:59.256Z,4.87
2023-04-20T02:44:27.192Z,4.33
2023-04-20T02:46:55.536Z,5.23
2023-04-20T02:49:26.842Z,4.80
2023-04-20T02:51:54.789Z,6.53
2023-04-20T02:54:22.621Z,4.03
2023-04-20T02:56:51.124Z,6.97
2023-04-20T02:59:19.478Z,2.70
2023-04-20T03:01:59.633Z,6.03
2023-04-20T03:04:29.154Z,5.37
2023-04-20T03:07:17.845Z,4.60
2023-04-20T03:09:46.582Z,4.93
2023-04-20T03:12:14.551Z,6.83
2023-04-20T03:15:01.077Z,4.07
2023-04-20T03:17:41.509Z,4.17
2023-04-20T03:20:11.478Z,5.50
2023-04-20T03:22:39.377Z,4.63
2023-04-20T03:25:09.132Z,7.57
2023-04-20T03:27:59.142Z,4.37
2023-04-20T03:30:27.743Z,3.70
2023-04-20T03:33:04.414Z,4.23
2023-04-20T03:35:34.285Z,7.00
2023-04-20T03:38:02.263Z,6.13
2023-04-20T03:40:30.166Z,4.83
2023-04-20T03:42:58.084Z,5.20
2023-04-20T03:45:26.035Z,3.73
2023-04-20T03:47:54.094Z,4.83
2023-04-20T03:50:23.004Z,3.80
2023-04-20T03:52:52.252Z,5.27
2023-04-20T03:55:21.197Z,3.40
2023-04-20T03:57:55.759Z,5.73
2023-04-20T04:00:24.805Z,4.93
2023-04-20T04:02:59.419Z,5.33
2023-04-20T04:05:29.643Z,4.50
2023-04-20T04:07:58.975Z,4.00
2023-04-20T04:10:27.466Z,7.00
2023-04-20T04:12:55.368Z,7.33
2023-04-20T04:15:23.870Z,5.13
2023-04-20T04:18:02.581Z,5.50
2023-04-20T04:20:32.673Z,4.80
2023-04-20T04:23:02.482Z,4.93
2023-04-20T04:25:57.136Z,4.93
2023-04-20T04:28:26.677Z,6.53
2023-04-20T04:31:17.333Z,4.60
2023-04-20T04:33:46.232Z,4.90
2023-04-20T04:36:19.744Z,6.53
2023-04-20T04:38:49.855Z,4.77
2023-04-20T04:41:18.649Z,6.87
2023-04-20T04:43:48.804Z,5.47
2023-04-20T04:46:25.465Z,7.53
2023-04-20T04:48:53.468Z,5.67
2023-04-20T04:51:21.336Z,4.17
2023-04-20T04:53:51.825Z,4.80
2023-04-20T04:56:20.566Z,4.63
2023-04-20T04:58:48.512Z,3.73
2023-04-20T05:01:16.379Z,8.97
2023-04-20T05:03:44.317Z,5.60
2023-04-20T05:06:12.320Z,4.17
2023-04-20T05:08:40.174Z,10.00
2023-04-20T05:11:09.350Z,7.47
2023-04-20T05:13:37.255Z,7.70
2023-04-20T05:16:05.601Z,6.47
2023-04-20T05:18:33.590Z,5.43
2023-04-20T05:21:02.104Z,7.30
2023-04-20T05:23:30.154Z,6.90
2023-04-20T05:25:58.258Z,7.37
2023-04-20T05:28:27.808Z,6.70
2023-04-20T05:30:55.721Z,6.20
2023-04-20T05:33:23.740Z,8.13
2023-04-20T05:35:52.033Z,7.33
2023-04-20T05:38:19.985Z,8.03
2023-04-20T05:40:47.853Z,7.63
2023-04-20T05:43:17.305Z,7.13
2023-04-20T05:45:46.730Z,10.40
2023-04-20T05:48:14.651Z,5.60
2023-04-20T05:50:42.782Z,7.37
2023-04-20T05:53:10.636Z,7.47
2023-04-20T05:55:38.571Z,6.63
2023-04-20T05:58:06.902Z,5.30
2023-04-20T06:00:35.578Z,6.13
2023-04-20T06:03:05.207Z,5.90
2023-04-20T06:05:33.822Z,6.47
2023-04-20T06:08:01.783Z,6.30
2023-04-20T06:10:32.188Z,5.73
2023-04-20T06:13:00.224Z,5.20
2023-04-20T06:15:28.233Z,7.67
2023-04-20T06:17:56.501Z,5.40
2023-04-20T06:20:26.089Z,5.13
2023-04-20T06:22:54.473Z,6.03
2023-04-20T06:25:22.427Z,5.10
2023-04-20T06:27:52.459Z,6.33
2023-04-20T06:30:20.882Z,7.77
2023-04-20T06:32:48.984Z,6.03
2023-04-20T06:35:17.105Z,6.73
2023-04-20T06:37:46.355Z,7.37
2023-04-20T06:40:16.141Z,5.70
2023-04-20T06:42:44.240Z,6.38
2023-04-20T06:45:12.741Z,6.63
2023-04-20T06:47:40.653Z,5.50
2023-04-20T06:50:09.609Z,6.97
2023-04-20T06:52:38.192Z,5.93
2023-04-20T06:55:08.029Z,5.17
2023-04-20T06:57:37.205Z,6.20
2023-04-20T07:00:06.499Z,7.07
2023-04-20T07:02:43.604Z,7.60
2023-04-20T07:05:12.344Z,7.33
2023-04-20T07:07:40.709Z,6.10
2023-04-20T07:10:11.796Z,5.07
2023-04-20T07:12:42.296Z,8.43
2023-04-20T07:15:11.522Z,6.10
2023-04-20T07:17:39.558Z,6.73
2023-04-20T07:20:09.244Z,7.37
2023-04-20T07:22:37.306Z,5.20
2023-04-20T07:25:06.875Z,6.63
2023-04-20T07:27:38.206Z,5.90
2023-04-20T07:30:08.622Z,10.73
2023-04-20T07:32:36.996Z,6.60
2023-04-20T07:35:05.349Z,6.53
2023-04-20T07:37:34.909Z,7.70
2023-04-20T07:40:06.140Z,6.40
2023-04-20T07:42:34.515Z,5.70
2023-04-20T07:45:03.827Z,6.60
2023-04-20T07:47:31.855Z,7.30
2023-04-20T07:49:59.781Z,5.63
2023-04-20T07:52:27.759Z,6.00
2023-04-20T07:54:57.987Z,5.20
2023-04-20T07:57:26.094Z,6.47
2023-04-20T07:59:54.137Z,5.17
2023-04-20T08:02:23.785Z,6.30
2023-04-20T08:04:52.029Z,5.87
2023-04-20T08:07:20.113Z,5.87
2023-04-20T08:09:47.957Z,5.50
2023-04-20T08:12:15.878Z,5.77
2023-04-20T08:14:43.746Z,5.47
2023-04-20T08:17:11.596Z,7.03
2023-04-20T08:19:42.383Z,7.43
2023-04-20T08:22:12.684Z,7.93
2023-04-20T08:24:40.694Z,6.90
2023-04-20T08:27:09.677Z,6.87
2023-04-20T08:29:38.915Z,6.27
2023-04-20T08:32:09.027Z,5.33
2023-04-20T08:34:37.265Z,5.77
2023-04-20T08:37:07.172Z,4.30
2023-04-20T08:39:35.017Z,6.57
2023-04-20T08:42:03.252Z,6.20
2023-04-20T08:44:31.264Z,6.00
2023-04-20T08:47:00.422Z,5.77
2023-04-20T08:49:29.702Z,4.33
2023-04-20T08:51:57.948Z,5.57
2023-04-20T08:54:27.408Z,4.20
2023-04-20T08:56:55.461Z,5.00
2023-04-20T08:59:23.487Z,4.43
2023-04-20T09:01:51.412Z,5.27
2023-04-20T09:04:21.643Z,5.10
2023-04-20T09:06:51.182Z,6.13
2023-04-20T09:09:19.885Z,4.93
2023-04-20T09:11:49.528Z,7.13
2023-04-20T09:14:18.156Z,4.13
2023-04-20T09:16:53.815Z,5.13
2023-04-20T09:19:25.347Z,5.03
2023-04-20T09:21:54.443Z,4.10
2023-04-20T09:24:23.535Z,4.43
2023-04-20T09:26:52.945Z,5.07
2023-04-20T09:29:23.368Z,4.63
2023-04-20T09:31:51.763Z,4.53
2023-04-20T09:34:20.470Z,4.60
2023-04-20T09:36:51.135Z,3.90
2023-04-20T09:39:20.899Z,5.03
2023-04-20T09:41:49.783Z,4.83
2023-04-20T09:44:19.926Z,4.23
2023-04-20T09:46:48.009Z,4.33
2023-04-20T09:49:16.977Z,3.70
2023-04-20T09:51:46.038Z,3.97
2023-04-20T09:54:15.771Z,4.20
2023-04-20T09:56:44.058Z,3.77
2023-04-20T09:59:13.433Z,3.67
2023-04-20T10:01:42.771Z,4.70
2023-04-20T10:04:14.093Z,3.70
2023-04-20T10:06:53.981Z,4.30
2023-04-20T10:09:24.416Z,4.13
2023-04-20T10:11:54.625Z,4.43
2023-04-20T10:14:25.802Z,3.70
2023-04-20T10:17:03.167Z,3.20
2023-04-20T10:19:48.892Z,3.30
2023-04-20T10:22:30.664Z,4.00
2023-04-20T10:24:58.588Z,4.53
2023-04-20T10:27:26.524Z,4.40
2023-04-20T10:29:54.466Z,3.73
2023-04-20T10:32:25.017Z,5.50
2023-04-20T10:35:03.817Z,4.03
2023-04-20T10:37:32.228Z,3.97
2023-04-20T10:40:00.813Z,4.77
2023-04-20T10:42:29.431Z,4.40
2023-04-20T10:44:57.462Z,5.27
2023-04-20T10:47:31.693Z,4.00
2023-04-20T10:50:09.126Z,4.10
2023-04-20T10:52:38.342Z,4.83
2023-04-20T10:55:08.286Z,3.73
2023-04-20T10:57:37.360Z,4.03
2023-04-20T11:00:16.692Z,4.83
2023-04-20T11:02:51.009Z,4.77
2023-04-20T11:05:20.315Z,4.57
2023-04-20T11:07:52.342Z,4.60
2023-04-20T11:10:20.871Z,4.77
2023-04-20T11:12:48.902Z,5.03
2023-04-20T11:15:17.596Z,5.27
2023-04-20T11:17:46.724Z,5.17
2023-04-20T11:20:18.352Z,6.40
2023-04-20T11:22:57.462Z,4.90
2023-04-20T11:25:25.551Z,5.23
2023-04-20T11:27:53.485Z,5.03
2023-04-20T11:30:21.378Z,5.00
2023-04-20T11:32:55.899Z,4.73
2023-04-20T11:35:25.415Z,5.27
2023-04-20T11:37:54.303Z,5.30
2023-04-20T11:40:22.503Z,9.10
2023-04-20T11:42:50.754Z,6.27
2023-04-20T11:45:18.897Z,5.60
2023-04-20T11:47:47.182Z,4.80
2023-04-20T11:50:15.416Z,5.60
2023-04-20T11:52:44.732Z,8.43
2023-04-20T11:55:12.692Z,7.40
2023-04-20T11:57:40.532Z,5.60
2023-04-20T12:00:09.832Z,6.10
2023-04-20T12:02:43.621Z,6.17
2023-04-20T12:05:12.294Z,6.17
2023-04-20T12:07:40.377Z,6.53
2023-04-20T12:10:10.679Z,6.10
2023-04-20T12:12:38.909Z,7.00
2023-04-20T12:15:08.064Z,7.47
2023-04-20T12:17:36.029Z,6.97
2023-04-20T12:20:06.054Z,6.20
2023-04-20T12:22:33.968Z,7.73
2023-04-20T12:25:01.873Z,7.40
2023-04-20T12:27:31.386Z,6.87
2023-04-20T12:29:59.332Z,6.50
2023-04-20T12:32:27.256Z,7.50
2023-04-20T12:34:55.878Z,5.80
2023-04-20T12:37:23.883Z,7.23
2023-04-20T12:39:51.922Z,5.93
2023-04-20T12:42:19.923Z,5.77
2023-04-20T12:44:49.099Z,6.17
2023-04-20T12:47:16.998Z,6.70
2023-04-20T12:49:44.993Z,6.27
2023-04-20T12:52:12.831Z,7.30
2023-04-20T12:54:42.720Z,7.17
2023-04-20T12:57:11.872Z,6.90
2023-04-20T12:59:39.784Z,9.10
2023-04-20T13:02:09.132Z,7.10
2023-04-20T13:04:37.172Z,8.47
2023-04-20T13:07:05.063Z,9.37
2023-04-20T13:09:32.904Z,9.10
2023-04-20T13:12:01.232Z,9.27
2023-04-20T13:14:29.066Z,9.23
2023-04-20T13:16:57.286Z,9.03
2023-04-20T13:19:26.736Z,8.67
2023-04-20T13:21:54.635Z,8.20
2023-04-20T13:24:22.536Z,8.10
2023-04-20T13:26:52.705Z,8.30
2023-04-20T13:29:22.020Z,8.17
2023-04-20T13:31:50.376Z,7.80
2023-04-20T13:34:18.742Z,8.50
2023-04-20T13:36:48.296Z,8.30
2023-04-20T13:39:17.747Z,8.03
2023-04-20T13:41:45.906Z,8.63
2023-04-20T13:44:16.134Z,8.73
2023-04-20T13:46:45.072Z,9.67
2023-04-20T13:49:13.585Z,10.23
2023-04-20T13:51:41.886Z,10.57
2023-04-20T13:54:11.371Z,10.00
2023-04-20T13:56:39.183Z,10.47
2023-04-20T13:59:07.149Z,10.70
2023-04-20T14:01:35.250Z,10.63
2023-04-20T14:04:03.660Z,10.30
2023-04-20T14:06:31.893Z,10.03
2023-04-20T14:08:59.793Z,9.20
2023-04-20T14:11:28.976Z,10.90
2023-04-20T14:13:56.935Z,8.87
2023-04-20T14:16:26.363Z,9.83
2023-04-20T14:18:54.266Z,9.00
2023-04-20T14:21:22.095Z,6.90
2023-04-20T14:23:53.295Z,6.90
2023-04-20T14:26:21.323Z,7.33
2023-04-20T14:28:52.478Z,7.87
2023-04-20T14:31:20.414Z,7.67
2023-04-20T14:33:48.382Z,7.37
2023-04-20T14:36:16.367Z,6.47
2023-04-20T14:38:44.288Z,7.30
2023-04-20T14:41:12.136Z,7.23
2023-04-20T14:43:39.987Z,7.50
2023-04-20T14:46:09.405Z,7.60
2023-04-20T14:48:38.065Z,7.20
2023-04-20T14:51:06.370Z,7.47
2023-04-20T14:53:34.690Z,7.90
2023-04-20T14:56:03.186Z,7.07
2023-04-20T14:58:31.128Z,6.63
2023-04-20T15:00:59.025Z,6.73
2023-04-20T15:03:28.289Z,6.20
2023-04-20T15:06:04.091Z,5.73
2023-04-20T15:08:32.102Z,6.50
2023-04-20T15:11:00.066Z,5.87
2023-04-20T15:13:28.055Z,5.40
2023-04-20T15:15:56.015Z,5.10
2023-04-20T15:18:23.973Z,5.00
2023-04-20T15:20:53.317Z,4.30
2023-04-20T15:23:21.215Z,4.87
2023-04-20T15:25:49.143Z,5.13
2023-04-20T15:28:17.472Z,4.70
2023-04-20T15:30:45.729Z,5.27
2023-04-20T15:33:13.723Z,5.17
2023-04-20T15:35:41.715Z,6.73
2023-04-20T15:38:13.132Z,4.97
2023-04-20T15:40:41.370Z,5.20
2023-04-20T15:43:09.263Z,5.30
2023-04-20T15:45:37.154Z,4.70
2023-04-20T15:48:06.208Z,4.80
2023-04-20T15:50:34.259Z,4.73
2023-04-20T15:53:02.332Z,4.90
2023-04-20T15:55:34.404Z,5.00
2023-04-20T15:58:02.301Z,5.83
2023-04-20T16:00:30.190Z,5.50
2023-04-20T16:02:58.678Z,5.10
2023-04-20T16:05:27.176Z,5.73
2023-04-20T16:07:55.556Z,5.40
2023-04-20T16:10:23.959Z,6.10
2023-04-20T16:12:53.298Z,5.23
2023-04-20T16:15:21.424Z,5.80
2023-04-20T16:17:49.380Z,5.57
2023-04-20T16:20:17.422Z,5.60
2023-04-20T16:22:45.311Z,5.90
2023-04-20T16:25:22.310Z,5.50
2023-04-20T16:27:50.657Z,7.63
2023-04-20T16:30:20.267Z,5.43
2023-04-20T16:32:48.273Z,6.07
2023-04-20T16:35:16.261Z,6.00
2023-04-20T16:37:44.166Z,5.70
2023-04-20T16:40:12.343Z,5.73
2023-04-20T16:42:40.253Z,5.60
2023-04-20T16:45:09.255Z,6.97
2023-04-20T16:47:38.524Z,6.47
2023-04-20T16:50:07.613Z,6.00
2023-04-20T16:52:36.130Z,6.07
2023-04-20T16:55:04.357Z,5.87
2023-04-20T16:57:32.348Z,7.87
2023-04-20T17:00:00.434Z,7.20
2023-04-20T17:02:32.803Z,6.07
2023-04-20T17:05:02.475Z,6.43
2023-04-20T17:07:30.440Z,6.90
2023-04-20T17:09:58.500Z,7.20
2023-04-20T17:12:26.465Z,8.03
2023-04-20T17:14:56.280Z,7.27
2023-04-20T17:17:25.061Z,7.87
2023-04-20T17:19:52.976Z,7.50
2023-04-20T17:22:22.356Z,7.30
2023-04-20T17:24:50.398Z,8.30
2023-04-20T17:27:18.350Z,8.30
2023-04-20T17:29:47.478Z,8.50
2023-04-20T17:32:15.483Z,8.97
2023-04-20T17:34:47.915Z,8.90
2023-04-20T17:37:16.121Z,9.43
2023-04-20T17:39:45.382Z,8.57
2023-04-20T17:42:13.661Z,9.00
2023-04-20T17:44:41.631Z,10.47
2023-04-20T17:47:10.400Z,8.67
2023-04-20T17:49:41.125Z,9.47
2023-04-20T17:52:09.207Z,9.87
2023-04-20T17:54:37.072Z,10.57
2023-04-20T17:57:06.848Z,9.70
2023-04-20T17:59:34.799Z,8.40
2023-04-20T18:02:02.931Z,10.93
2023-04-20T18:04:31.104Z,11.10
2023-04-20T18:06:59.060Z,7.47
2023-04-20T18:09:26.967Z,10.17
2023-04-20T18:11:54.889Z,8.80
2023-04-20T18:14:24.434Z,9.27
2023-04-20T18:16:54.817Z,8.80
2023-04-20T18:19:22.749Z,8.30
2023-04-20T18:21:51.179Z,7.33
2023-04-20T18:24:19.411Z,7.47
2023-04-20T18:26:47.437Z,7.70
2023-04-20T18:29:15.270Z,7.03
2023-04-20T18:31:46.327Z,6.97
2023-04-20T18:34:15.424Z,7.60
2023-04-20T18:36:43.477Z,7.73
2023-04-20T18:39:11.558Z,7.03
2023-04-20T18:41:39.809Z,6.73
2023-04-20T18:44:08.609Z,8.60
2023-04-20T18:46:36.685Z,7.57
2023-04-20T18:49:06.200Z,7.37
2023-04-20T18:51:34.657Z,7.40
2023-04-20T18:54:02.748Z,6.93
2023-04-20T18:56:31.356Z,7.20
2023-04-20T18:59:00.235Z,6.33
2023-04-20T19:01:28.331Z,6.37
2023-04-20T19:03:56.915Z,6.90
2023-04-20T19:06:26.285Z,6.70
2023-04-20T19:08:55.200Z,7.07
2023-04-20T19:11:23.128Z,7.00
2023-04-20T19:13:50.986Z,6.53
2023-04-20T19:16:19.357Z,6.30
2023-04-20T19:18:48.417Z,7.43
2023-04-20T19:21:16.639Z,7.00
2023-04-20T19:23:45.829Z,9.70
2023-04-20T19:26:13.817Z,6.70
2023-04-20T19:28:41.728Z,8.30
2023-04-20T19:31:10.962Z,6.80
2023-04-20T19:33:38.980Z,9.50
2023-04-20T19:36:08.113Z,6.90
2023-04-20T19:38:38.308Z,6.93
2023-04-20T19:41:07.560Z,7.93
2023-04-20T19:43:36.193Z,9.03
2023-04-20T19:46:04.299Z,8.73
2023-04-20T19:48:32.289Z,7.87
2023-04-20T19:51:00.849Z,7.70
2023-04-20T19:53:28.809Z,7.23
2023-04-20T19:55:56.821Z,7.73
2023-04-20T19:58:26.137Z,7.93
2023-04-20T20:00:54.293Z,8.43
2023-04-20T20:03:22.543Z,7.37
2023-04-20T20:05:50.679Z,8.03
2023-04-20T20:08:18.603Z,8.37
2023-04-20T20:10:46.523Z,7.80
2023-04-20T20:13:14.527Z,6.87
2023-04-20T20:15:44.402Z,6.63
2023-04-20T20:18:12.696Z,7.10
2023-04-20T20:20:40.632Z,7.23
2023-04-20T20:23:08.510Z,6.80
2023-04-20T20:25:36.401Z,6.70
2023-04-20T20:28:04.331Z,6.90
2023-04-20T20:30:33.013Z,6.00
2023-04-20T20:33:02.253Z,6.27
2023-04-20T20:35:31.686Z,6.97
2023-04-20T20:37:59.805Z,6.07
2023-04-20T20:40:27.769Z,6.77
2023-04-20T20:42:56.812Z,6.83
2023-04-20T20:45:24.987Z,6.83
2023-04-20T20:47:52.952Z,6.90
2023-04-20T20:50:22.795Z,6.70
2023-04-20T20:52:50.965Z,7.53
2023-04-20T20:55:18.804Z,7.63
2023-04-20T20:57:47.135Z,6.80
2023-04-20T21:00:16.048Z,7.50
2023-04-20T21:02:44.093Z,8.37
2023-04-20T21:05:12.280Z,7.57
2023-04-20T21:07:41.530Z,7.23
2023-04-20T21:10:11.537Z,7.67
2023-04-20T21:12:39.372Z,7.30
2023-04-20T21:15:10.012Z,8.17
2023-04-20T21:17:37.878Z,6.80
2023-04-20T21:20:07.096Z,7.77
2023-04-20T21:22:34.933Z,7.90
2023-04-20T21:25:04.616Z,7.73
2023-04-20T21:27:32.530Z,7.40
2023-04-20T21:30:00.409Z,8.63
2023-04-20T21:32:28.234Z,7.40
2023-04-20T21:34:56.082Z,8.33
2023-04-20T21:37:24.011Z,8.13
2023-04-20T21:39:51.961Z,8.53
2023-04-20T21:42:21.178Z,7.33
2023-04-20T21:44:49.026Z,7.93
2023-04-20T21:47:16.872Z,7.80
2023-04-20T21:49:44.713Z,7.80
2023-04-20T21:52:12.681Z,8.00
2023-04-20T21:54:41.842Z,7.80
2023-04-20T21:57:09.997Z,8.20
2023-04-20T21:59:39.237Z,8.67
2023-04-20T22:02:07.201Z,8.23
2023-04-20T22:04:35.693Z,8.97
2023-04-20T22:07:04.201Z,9.70
2023-04-20T22:09:32.139Z,10.23
2023-04-20T22:12:01.696Z,10.23
2023-04-20T22:14:29.928Z,10.20
2023-04-20T22:16:59.395Z,10.73
2023-04-20T22:19:27.652Z,11.13
2023-04-20T22:21:55.536Z,11.17
2023-04-20T22:24:23.358Z,12.67
2023-04-20T22:26:51.180Z,12.50
2023-04-20T22:29:19.304Z,13.27
2023-04-20T22:31:47.463Z,14.33
2023-04-20T22:34:16.712Z,14.37
2023-04-20T22:36:44.528Z,13.83
2023-04-20T22:39:12.401Z,14.00
2023-04-20T22:41:40.312Z,15.50
2023-04-20T22:44:08.239Z,17.40
2023-04-20T22:46:36.200Z,15.47
2023-04-20T22:49:04.118Z,16.67
2023-04-20T22:51:33.418Z,16.17
2023-04-20T22:54:02.537Z,17.40
2023-04-20T22:56:31.968Z,16.73
2023-04-20T22:58:59.853Z,16.23
2023-04-20T23:01:27.922Z,16.73
2023-04-20T23:03:55.948Z,18.43
2023-04-20T23:06:24.629Z,18.83
2023-04-20T23:11:40.771Z,19.73
2023-04-20T23:14:09.523Z,19.40
2023-04-20T23:16:38.347Z,20.07
2023-04-20T23:19:06.286Z,20.47
2023-04-20T23:21:34.151Z,19.23
2023-04-20T23:24:03.395Z,21.40
2023-04-20T23:26:31.346Z,19.17
2023-04-20T23:28:59.312Z,20.17
2023-04-20T23:31:27.189Z,24.40
2023-04-20T23:33:55.191Z,23.07
2023-04-20T23:36:23.020Z,22.40
2023-04-20T23:38:50.859Z,20.10
2023-04-20T23:41:20.041Z,21.00
2023-04-20T23:43:47.871Z,21.63
2023-04-20T23:46:15.801Z,23.23
2023-04-20T23:48:44.178Z,22.40
2023-04-20T23:51:12.214Z,22.80
2023-04-20T23:53:40.080Z,23.30
2023-04-20T23:56:08.724Z,23.73
2023-04-20T23:58:38.052Z,21.40
